Time;durP1;ratioP1;P1;durP2;ratioP2;P2;SDS_P1;SDS_P2;PMS_P1;PMS_P2;Temp;Humidity;BMP_temperature;BMP_pressure;BME280_temperature;BME280_humidity;BME280_pressure;Samples;Min_cycle;Max_cycle;Signal;HPM_P1;HPM_P2
2021/11/15 00:00:11;;;;;;;;;;;22.60;98.10;;;;;;5093866;28;19920;-64
2021/11/15 00:02:36;;;;;;;;;;;22.60;98.10;;;;;;5093662;28;19919;-64
2021/11/15 00:05:02;;;;;;;;;;;22.60;98.10;;;;;;5093952;28;19908;-64
2021/11/15 00:07:27;;;;;;;;;;;22.60;98.10;;;;;;5093942;28;19908;-64
2021/11/15 00:09:53;;;;;;;;;;;22.60;98.10;;;;;;5093802;28;19908;-64
2021/11/15 00:12:18;;;;;;;;;;;22.60;98.10;;;;;;5093292;28;20041;-63
2021/11/15 00:14:44;;;;;;;;;;;22.60;98.10;;;;;;5093666;28;19943;-64
2021/11/15 00:17:11;;;;;;;;;;;22.50;98.10;;;;;;5093752;28;19908;-64
2021/11/15 00:19:36;;;;;;;;;;;22.50;98.10;;;;;;5075484;28;19920;-64
2021/11/15 00:22:03;;;;;;;;;;;22.50;98.10;;;;;;5093654;28;19908;-64
2021/11/15 00:24:29;;;;;;;;;;;22.50;98.10;;;;;;5093645;28;19908;-64
2021/11/15 00:26:54;;;;;;;;;;;22.50;98.10;;;;;;5093174;28;20351;-64
2021/11/15 00:29:20;;;;;;;;;;;22.50;98.10;;;;;;5093545;28;19908;-64
2021/11/15 00:31:45;;;;;;;;;;;22.50;98.10;;;;;;5093646;28;19919;-64
2021/11/15 00:34:11;;;;;;;;;;;22.50;98.10;;;;;;5093582;28;19915;-64
2021/11/15 00:36:36;;;;;;;;;;;22.50;98.10;;;;;;5075360;28;19998;-64
2021/11/15 00:39:03;;;;;;;;;;;22.50;98.10;;;;;;5093459;28;20429;-64
2021/11/15 00:41:28;;;;;;;;;;;22.50;98.10;;;;;;5094828;28;19915;-64
2021/11/15 00:43:54;;;;;;;;;;;22.50;98.10;;;;;;5097493;28;19908;-64
2021/11/15 00:46:21;;;;;;;;;;;22.40;98.10;;;;;;5097443;28;19909;-64
2021/11/15 00:48:46;;;;;;;;;;;22.40;98.10;;;;;;5097283;28;19958;-64
2021/11/15 00:51:12;;;;;;;;;;;22.40;98.10;;;;;;5078906;28;19966;-64
2021/11/15 00:53:37;;;;;;;;;;;22.40;98.10;;;;;;5097372;28;20034;-64
2021/11/15 00:56:03;;;;;;;;;;;22.40;98.10;;;;;;5096815;28;20299;-64
2021/11/15 00:58:28;;;;;;;;;;;22.40;98.10;;;;;;5096976;28;20003;-64
2021/11/15 01:00:54;;;;;;;;;;;22.40;98.10;;;;;;5097127;28;19936;-64
2021/11/15 01:03:19;;;;;;;;;;;22.40;98.10;;;;;;5096886;28;19908;-64
2021/11/15 01:05:48;;;;;;;;;;;22.40;98.10;;;;;;5097159;28;19912;-64
2021/11/15 01:08:14;;;;;;;;;;;22.40;98.10;;;;;;5078821;28;19908;-64
2021/11/15 01:10:40;;;;;;;;;;;22.40;98.10;;;;;;5096533;28;19961;-63
2021/11/15 01:13:05;;;;;;;;;;;22.40;98.10;;;;;;5096858;28;19916;-63
2021/11/15 01:15:31;;;;;;;;;;;22.40;98.10;;;;;;5096808;28;20323;-64
2021/11/15 01:17:57;;;;;;;;;;;22.40;98.10;;;;;;5097063;28;19908;-63
2021/11/15 01:20:32;;;;;;;;;;;22.30;98.00;;;;;;5096770;28;20392;-64
2021/11/15 01:22:58;;;;;;;;;;;22.30;98.00;;;;;;5096666;28;20042;-64
2021/11/15 01:25:24;;;;;;;;;;;22.30;98.00;;;;;;5096182;28;19946;-64
2021/11/15 01:27:50;;;;;;;;;;;22.30;98.00;;;;;;5096565;28;19915;-64
2021/11/15 01:30:16;;;;;;;;;;;22.30;98.00;;;;;;5096575;28;19916;-64
2021/11/15 01:32:42;;;;;;;;;;;22.30;98.00;;;;;;5096405;28;19997;-63
2021/11/15 01:35:09;;;;;;;;;;;22.30;98.00;;;;;;5096536;28;19908;-64
2021/11/15 01:37:34;;;;;;;;;;;22.30;98.00;;;;;;5096298;28;19908;-64
2021/11/15 01:40:00;;;;;;;;;;;22.30;98.00;;;;;;5095808;28;20330;-64
2021/11/15 01:42:26;;;;;;;;;;;22.30;98.00;;;;;;5096264;28;19930;-64
2021/11/15 01:44:51;;;;;;;;;;;22.30;98.00;;;;;;5096253;28;19954;-64
2021/11/15 01:47:16;;;;;;;;;;;22.30;98.00;;;;;;5096105;28;19908;-64
2021/11/15 01:49:42;;;;;;;;;;;22.30;98.00;;;;;;5077915;28;19912;-64
2021/11/15 01:52:08;;;;;;;;;;;22.20;98.00;;;;;;5095810;28;20006;-63
2021/11/15 01:54:33;;;;;;;;;;;22.20;98.00;;;;;;5095689;28;19908;-63
2021/11/15 01:56:59;;;;;;;;;;;22.20;98.00;;;;;;5095948;28;19960;-63
2021/11/15 01:59:25;;;;;;;;;;;22.20;98.00;;;;;;5095829;28;19920;-64
2021/11/15 02:01:50;;;;;;;;;;;22.20;98.00;;;;;;5095880;28;19908;-64
2021/11/15 02:04:16;;;;;;;;;;;22.20;98.00;;;;;;5095835;28;19918;-63
2021/11/15 02:06:41;;;;;;;;;;;22.20;98.00;;;;;;5095891;28;20258;-63
2021/11/15 02:09:07;;;;;;;;;;;22.20;98.00;;;;;;5095269;28;20253;-63
2021/11/15 02:11:33;;;;;;;;;;;22.20;97.90;;;;;;5095666;28;19951;-64
2021/11/15 02:13:59;;;;;;;;;;;22.20;97.90;;;;;;5095564;28;19908;-64
2021/11/15 02:16:24;;;;;;;;;;;22.20;98.00;;;;;;5095426;28;19953;-64
2021/11/15 02:18:50;;;;;;;;;;;22.20;98.00;;;;;;5095548;28;19912;-63
2021/11/15 02:21:15;;;;;;;;;;;22.10;97.90;;;;;;5095467;28;19987;-63
2021/11/15 02:23:42;;;;;;;;;;;22.20;97.90;;;;;;5095063;28;19915;-63
2021/11/15 02:26:09;;;;;;;;;;;22.10;98.20;;;;;;5095335;28;19908;-63
2021/11/15 02:28:39;;;;;;;;;;;22.20;97.90;;;;;;5095209;28;19909;-64
2021/11/15 02:31:05;;;;;;;;;;;22.10;97.90;;;;;;5095335;28;20292;-64
2021/11/15 02:33:31;;;;;;;;;;;22.10;97.90;;;;;;5095379;28;19908;-63
2021/11/15 02:35:57;;;;;;;;;;;22.10;97.90;;;;;;5095315;28;19919;-63
2021/11/15 02:38:23;;;;;;;;;;;22.10;97.90;;;;;;5094716;28;19908;-63
2021/11/15 02:40:48;;;;;;;;;;;22.10;97.90;;;;;;5095028;28;19957;-63
2021/11/15 02:43:14;;;;;;;;;;;22.10;97.90;;;;;;5095380;28;20280;-63
2021/11/15 02:45:39;;;;;;;;;;;22.10;97.90;;;;;;5095173;28;19915;-63
2021/11/15 02:48:05;;;;;;;;;;;22.10;97.90;;;;;;5095042;28;19908;-63
2021/11/15 02:50:32;;;;;;;;;;;22.10;97.90;;;;;;5094920;28;19909;-63
2021/11/15 02:52:58;;;;;;;;;;;22.10;97.90;;;;;;5094327;28;19908;-63
2021/11/15 02:55:24;;;;;;;;;;;22.10;97.90;;;;;;5094963;28;19908;-63
2021/11/15 02:57:50;;;;;;;;;;;22.00;97.90;;;;;;5094661;28;19915;-63
2021/11/15 03:00:19;;;;;;;;;;;22.00;97.90;;;;;;5094758;28;19920;-63
2021/11/15 03:02:45;;;;;;;;;;;22.00;97.90;;;;;;5094702;28;19915;-63
2021/11/15 03:05:10;;;;;;;;;;;22.00;97.90;;;;;;5094167;28;19908;-63
2021/11/15 03:07:36;;;;;;;;;;;22.00;97.90;;;;;;5094135;28;19934;-63
2021/11/15 03:10:02;;;;;;;;;;;22.00;98.20;;;;;;5094523;28;19951;-63
2021/11/15 03:12:34;;;;;;;;;;;22.00;97.90;;;;;;5094654;28;19908;-63
2021/11/15 03:15:00;;;;;;;;;;;22.00;97.90;;;;;;5094787;28;19912;-63
2021/11/15 03:17:25;;;;;;;;;;;22.00;97.90;;;;;;5094636;28;20371;-63
2021/11/15 03:19:51;;;;;;;;;;;22.00;97.90;;;;;;5094352;28;20372;-63
2021/11/15 03:22:16;;;;;;;;;;;22.00;97.90;;;;;;5093951;28;19934;-63
2021/11/15 03:24:42;;;;;;;;;;;22.00;97.90;;;;;;5076197;28;19964;-63
2021/11/15 03:27:07;;;;;;;;;;;21.90;97.90;;;;;;5094456;28;19908;-63
2021/11/15 03:29:33;;;;;;;;;;;21.90;97.90;;;;;;5094374;28;19915;-63
2021/11/15 03:31:58;;;;;;;;;;;21.90;97.80;;;;;;5094282;28;20372;-63
2021/11/15 03:34:24;;;;;;;;;;;21.90;97.90;;;;;;5094218;28;20426;-63
2021/11/15 03:36:50;;;;;;;;;;;21.90;97.90;;;;;;5093737;28;19908;-63
2021/11/15 03:39:16;;;;;;;;;;;21.90;97.90;;;;;;5094074;28;19916;-63
2021/11/15 03:41:42;;;;;;;;;;;21.90;97.80;;;;;;5094137;28;19913;-63
2021/11/15 03:44:08;;;;;;;;;;;21.90;97.90;;;;;;5094104;28;19934;-63
2021/11/15 03:46:33;;;;;;;;;;;21.90;97.90;;;;;;5093975;28;20269;-63
2021/11/15 03:48:59;;;;;;;;;;;21.90;97.90;;;;;;5093996;28;20254;-63
2021/11/15 03:51:25;;;;;;;;;;;21.80;97.80;;;;;;5093392;28;19908;-63
2021/11/15 03:53:51;;;;;;;;;;;21.80;97.80;;;;;;5094031;28;19908;-63
2021/11/15 03:56:18;;;;;;;;;;;21.80;97.80;;;;;;5093940;28;19912;-63
2021/11/15 03:58:45;;;;;;;;;;;21.80;97.80;;;;;;5093701;28;19920;-63
2021/11/15 04:01:11;;;;;;;;;;;21.80;97.90;;;;;;5093852;28;20007;-63
2021/11/15 04:03:38;;;;;;;;;;;21.80;97.90;;;;;;5075792;28;20352;-63
2021/11/15 04:06:10;;;;;;;;;;;21.80;97.90;;;;;;5093375;28;19908;-63
2021/11/15 04:08:36;;;;;;;;;;;21.80;97.80;;;;;;5093900;28;19932;-63
2021/11/15 04:11:03;;;;;;;;;;;21.80;97.80;;;;;;5093613;28;19908;-63
2021/11/15 04:13:30;;;;;;;;;;;21.80;97.90;;;;;;5093732;28;19908;-63
2021/11/15 04:15:57;;;;;;;;;;;21.80;97.90;;;;;;5096468;28;20292;-63
2021/11/15 04:18:23;;;;;;;;;;;21.80;97.90;;;;;;5097473;28;20383;-63
2021/11/15 04:20:51;;;;;;;;;;;21.80;97.90;;;;;;5097940;28;19931;-63
2021/11/15 04:23:16;;;;;;;;;;;21.80;97.90;;;;;;5097683;28;20006;-63
2021/11/15 04:25:42;;;;;;;;;;;21.70;97.80;;;;;;5097989;28;20380;-63
2021/11/15 04:28:07;;;;;;;;;;;21.80;97.90;;;;;;5097808;28;20356;-63
2021/11/15 04:30:33;;;;;;;;;;;21.80;97.90;;;;;;5097747;28;19908;-63
2021/11/15 04:32:59;;;;;;;;;;;21.70;97.80;;;;;;5097125;28;19908;-63
2021/11/15 04:35:25;;;;;;;;;;;21.80;97.90;;;;;;5097319;28;19931;-63
2021/11/15 04:37:51;;;;;;;;;;;21.70;97.90;;;;;;5097783;28;20364;-63
2021/11/15 04:40:16;;;;;;;;;;;21.70;97.90;;;;;;5097544;28;19920;-63
2021/11/15 04:42:42;;;;;;;;;;;21.70;97.90;;;;;;5097492;28;19912;-63
2021/11/15 04:45:08;;;;;;;;;;;21.70;97.90;;;;;;5097475;28;20050;-63
2021/11/15 04:47:33;;;;;;;;;;;21.70;97.90;;;;;;5096711;28;19916;-64
2021/11/15 04:49:59;;;;;;;;;;;21.70;97.90;;;;;;5097325;28;19908;-63
2021/11/15 04:52:25;;;;;;;;;;;21.70;97.90;;;;;;5097390;28;19954;-63
2021/11/15 04:54:50;;;;;;;;;;;21.70;97.90;;;;;;5097333;28;19999;-63
2021/11/15 04:57:18;;;;;;;;;;;21.70;97.90;;;;;;5097026;28;20406;-63
2021/11/15 04:59:43;;;;;;;;;;;21.70;97.90;;;;;;5096937;28;19920;-63
2021/11/15 05:02:09;;;;;;;;;;;21.70;97.90;;;;;;5096610;28;20003;-63
2021/11/15 05:04:35;;;;;;;;;;;21.70;97.90;;;;;;5097243;28;19934;-63
2021/11/15 05:07:00;;;;;;;;;;;21.60;97.80;;;;;;5097048;28;19908;-63
2021/11/15 05:09:26;;;;;;;;;;;21.60;97.80;;;;;;5096891;28;20411;-63
2021/11/15 05:11:51;;;;;;;;;;;21.60;97.80;;;;;;5096981;28;19909;-63
2021/11/15 05:14:17;;;;;;;;;;;21.60;97.80;;;;;;5096973;28;19909;-63
2021/11/15 05:16:43;;;;;;;;;;;21.60;97.80;;;;;;5096358;28;19912;-63
2021/11/15 05:19:08;;;;;;;;;;;21.60;97.90;;;;;;5096661;28;20257;-63
2021/11/15 05:21:34;;;;;;;;;;;21.60;97.80;;;;;;5096634;28;19915;-63
2021/11/15 05:23:59;;;;;;;;;;;21.60;97.80;;;;;;5096690;28;19908;-63
2021/11/15 05:26:24;;;;;;;;;;;21.60;97.80;;;;;;5095999;28;19999;-64
2021/11/15 05:28:51;;;;;;;;;;;21.60;97.80;;;;;;5096629;28;20012;-63
2021/11/15 05:31:16;;;;;;;;;;;21.60;97.90;;;;;;5095924;28;19965;-63
2021/11/15 05:33:42;;;;;;;;;;;21.50;97.80;;;;;;5096570;28;19916;-63
2021/11/15 05:36:07;;;;;;;;;;;21.60;97.90;;;;;;5096563;28;19908;-64
2021/11/15 05:38:33;;;;;;;;;;;21.50;97.80;;;;;;5096347;28;20384;-64
2021/11/15 05:40:58;;;;;;;;;;;21.50;97.80;;;;;;5096186;28;19913;-64
2021/11/15 05:43:24;;;;;;;;;;;21.50;98.10;;;;;;5096376;28;19912;-63
2021/11/15 05:45:50;;;;;;;;;;;21.50;97.80;;;;;;5095929;28;19909;-64
2021/11/15 05:48:15;;;;;;;;;;;21.50;97.80;;;;;;5096164;28;20356;-64
2021/11/15 05:50:41;;;;;;;;;;;21.50;97.90;;;;;;5096409;28;19911;-63
2021/11/15 05:53:06;;;;;;;;;;;21.50;97.90;;;;;;5096093;28;19920;-64
2021/11/15 05:55:32;;;;;;;;;;;21.50;97.90;;;;;;5096055;28;19961;-64
2021/11/15 05:57:57;;;;;;;;;;;21.50;97.90;;;;;;5095912;28;19915;-63
2021/11/15 06:00:24;;;;;;;;;;;21.50;97.90;;;;;;5095574;28;19916;-64
2021/11/15 06:02:50;;;;;;;;;;;21.50;97.90;;;;;;5095807;28;20381;-64
2021/11/15 06:05:15;;;;;;;;;;;21.50;97.90;;;;;;5096012;28;20434;-64
2021/11/15 06:07:41;;;;;;;;;;;21.50;97.90;;;;;;5096115;28;20314;-64
2021/11/15 06:10:07;;;;;;;;;;;21.50;97.90;;;;;;5095675;28;20000;-64
2021/11/15 06:12:34;;;;;;;;;;;21.50;97.90;;;;;;5095726;28;19912;-62
2021/11/15 06:15:00;;;;;;;;;;;21.50;97.90;;;;;;5095468;28;20331;-59
2021/11/15 06:17:25;;;;;;;;;;;21.50;97.90;;;;;;5095656;28;19916;-62
2021/11/15 06:19:51;;;;;;;;;;;21.50;97.90;;;;;;5095558;28;19916;-63
2021/11/15 06:22:16;;;;;;;;;;;21.50;98.00;;;;;;5095516;28;20003;-62
2021/11/15 06:24:47;;;;;;;;;;;21.60;98.00;;;;;;5095553;28;19919;-63
2021/11/15 06:27:13;;;;;;;;;;;21.60;98.00;;;;;;5095752;28;19995;-61
2021/11/15 06:29:39;;;;;;;;;;;21.60;98.00;;;;;;5095038;28;19996;-60
2021/11/15 06:32:05;;;;;;;;;;;21.60;98.00;;;;;;5095601;28;19990;-60
2021/11/15 06:34:30;;;;;;;;;;;21.60;98.10;;;;;;5095340;28;19915;-60
2021/11/15 06:36:55;;;;;;;;;;;21.60;98.10;;;;;;5095096;28;19923;-62
2021/11/15 06:39:23;;;;;;;;;;;21.70;98.20;;;;;;5094230;28;19916;-64
2021/11/15 06:41:52;;;;;;;;;;;21.70;98.20;;;;;;5095152;28;19908;-62
2021/11/15 06:44:18;;;;;;;;;;;21.70;98.30;;;;;;5094723;28;19908;-60
2021/11/15 06:46:43;;;;;;;;;;;21.80;98.30;;;;;;5095115;28;19909;-68
2021/11/15 06:49:09;;;;;;;;;;;21.80;98.30;;;;;;5094944;28;19915;-71
2021/11/15 06:51:34;;;;;;;;;;;21.80;98.40;;;;;;5094936;28;19908;-67
2021/11/15 06:54:00;;;;;;;;;;;21.80;98.40;;;;;;5094920;28;19940;-64
2021/11/15 06:56:26;;;;;;;;;;;21.80;98.40;;;;;;5095006;28;19961;-69
2021/11/15 06:58:51;;;;;;;;;;;21.90;98.50;;;;;;5094196;28;20368;-72
2021/11/15 07:01:16;;;;;;;;;;;21.90;98.50;;;;;;5094718;28;19914;-67
2021/11/15 07:03:43;;;;;;;;;;;21.90;98.40;;;;;;5094833;28;20399;-67
2021/11/15 07:06:09;;;;;;;;;;;21.90;98.50;;;;;;5094699;28;19998;-72
2021/11/15 07:08:34;;;;;;;;;;;21.90;98.40;;;;;;5094720;28;19963;-70
2021/11/15 07:11:00;;;;;;;;;;;22.00;98.50;;;;;;5094699;28;20457;-71
2021/11/15 07:13:25;;;;;;;;;;;22.00;98.40;;;;;;5094069;28;19916;-72
2021/11/15 07:15:51;;;;;;;;;;;22.00;98.50;;;;;;5094462;28;20273;-71
2021/11/15 07:18:16;;;;;;;;;;;22.00;98.40;;;;;;5094517;28;20057;-62
2021/11/15 07:20:42;;;;;;;;;;;22.00;98.40;;;;;;5094328;28;20006;-58
2021/11/15 07:23:08;;;;;;;;;;;22.00;98.40;;;;;;5094392;28;19908;-59
2021/11/15 07:25:33;;;;;;;;;;;22.00;98.40;;;;;;5094428;28;19912;-60
2021/11/15 07:27:59;;;;;;;;;;;22.00;98.40;;;;;;5093884;28;19917;-60
2021/11/15 07:30:24;;;;;;;;;;;22.00;98.40;;;;;;5094310;28;19916;-59
2021/11/15 07:32:50;;;;;;;;;;;22.00;98.30;;;;;;5094326;28;19931;-59
2021/11/15 07:35:16;;;;;;;;;;;22.10;98.30;;;;;;5094229;28;19955;-59
2021/11/15 07:37:42;;;;;;;;;;;22.10;98.30;;;;;;5094279;28;20379;-59
2021/11/15 07:40:09;;;;;;;;;;;22.10;98.30;;;;;;5093957;28;19916;-59
2021/11/15 07:42:35;;;;;;;;;;;22.10;98.30;;;;;;5093680;28;19908;-59
2021/11/15 07:45:00;;;;;;;;;;;22.10;98.30;;;;;;5075619;28;20281;-60
2021/11/15 07:47:26;;;;;;;;;;;22.10;98.30;;;;;;5093963;28;20448;-58
2021/11/15 07:49:52;;;;;;;;;;;22.10;98.30;;;;;;5093727;28;19908;-59
2021/11/15 07:52:18;;;;;;;;;;;22.10;98.30;;;;;;5075997;28;19951;-59
2021/11/15 07:54:44;;;;;;;;;;;22.10;98.20;;;;;;5093982;28;19908;-59
2021/11/15 07:57:09;;;;;;;;;;;22.10;98.20;;;;;;5093518;28;20391;-59
2021/11/15 07:59:35;;;;;;;;;;;22.10;98.20;;;;;;5093644;28;19924;-59
2021/11/15 08:02:03;;;;;;;;;;;22.10;98.20;;;;;;5093385;28;21545;-59
2021/11/15 08:04:28;;;;;;;;;;;22.10;98.20;;;;;;5093996;28;19915;-59
2021/11/15 08:06:54;;;;;;;;;;;22.10;98.20;;;;;;5093688;28;19938;-59
2021/11/15 08:09:19;;;;;;;;;;;22.10;98.20;;;;;;5093795;28;19915;-58
2021/11/15 08:11:45;;;;;;;;;;;22.20;98.20;;;;;;5093388;28;19908;-58
2021/11/15 08:14:12;;;;;;;;;;;22.10;98.20;;;;;;5093864;28;20349;-59
2021/11/15 08:16:37;;;;;;;;;;;22.10;98.10;;;;;;5093675;28;20245;-58
2021/11/15 08:19:03;;;;;;;;;;;22.10;98.10;;;;;;5093652;28;19912;-59
2021/11/15 08:21:29;;;;;;;;;;;22.10;98.10;;;;;;5093723;28;20360;-59
2021/11/15 08:23:54;;;;;;;;;;;22.10;98.10;;;;;;5093833;28;19915;-59
2021/11/15 08:26:20;;;;;;;;;;;22.10;98.10;;;;;;5093024;28;20295;-58
2021/11/15 08:28:45;;;;;;;;;;;22.10;98.10;;;;;;5093832;28;19908;-59
2021/11/15 08:31:11;;;;;;;;;;;22.20;98.10;;;;;;5093757;28;20424;-59
2021/11/15 08:33:38;;;;;;;;;;;22.10;98.10;;;;;;5093619;28;19915;-59
2021/11/15 08:36:04;;;;;;;;;;;22.20;98.10;;;;;;5093587;28;20314;-59
2021/11/15 08:38:44;;;;;;;;;;;22.20;98.10;;;;;;5093470;28;20253;-58
2021/11/15 08:41:13;;;;;;;;;;;22.10;98.10;;;;;;5093044;28;19908;-59
2021/11/15 08:43:38;;;;;;;;;;;22.10;98.10;;;;;;5093314;28;19909;-59
2021/11/15 08:46:06;;;;;;;;;;;22.20;98.10;;;;;;5075319;28;19999;-59
2021/11/15 08:48:31;;;;;;;;;;;22.20;98.10;;;;;;5093458;28;19961;-59
2021/11/15 08:50:57;;;;;;;;;;;22.20;98.10;;;;;;5093564;28;19912;-59
2021/11/15 08:53:22;;;;;;;;;;;22.10;98.10;;;;;;5093215;28;20284;-59
2021/11/15 08:55:48;;;;;;;;;;;22.10;98.00;;;;;;5092965;28;19908;-58
2021/11/15 08:58:13;;;;;;;;;;;22.20;98.10;;;;;;5093215;28;19963;-59
2021/11/15 09:00:42;;;;;;;;;;;22.10;98.00;;;;;;5093293;28;20009;-58
2021/11/15 09:03:08;;;;;;;;;;;22.20;98.10;;;;;;5096057;28;19914;-59
2021/11/15 09:05:34;;;;;;;;;;;22.20;98.10;;;;;;5097082;28;20280;-51
2021/11/15 09:07:59;;;;;;;;;;;22.20;98.10;;;;;;5096917;28;19999;-59
2021/11/15 09:10:24;;;;;;;;;;;22.20;98.10;;;;;;5096523;28;19916;-59
2021/11/15 09:12:50;;;;;;;;;;;22.20;98.10;;;;;;5096873;28;19908;-59
2021/11/15 09:15:16;;;;;;;;;;;22.10;98.00;;;;;;5097072;28;19916;-59
2021/11/15 09:17:43;;;;;;;;;;;22.20;98.10;;;;;;5096638;28;19931;-59
2021/11/15 09:20:09;;;;;;;;;;;22.20;98.10;;;;;;5096836;28;19916;-59
2021/11/15 09:22:35;;;;;;;;;;;22.20;98.10;;;;;;5096698;28;19914;-59
2021/11/15 09:25:01;;;;;;;;;;;22.20;98.10;;;;;;5096218;28;19908;-59
2021/11/15 09:27:26;;;;;;;;;;;22.20;98.10;;;;;;5096756;28;19916;-59
2021/11/15 09:29:53;;;;;;;;;;;22.20;98.10;;;;;;5096584;28;19908;-59
2021/11/15 09:32:20;;;;;;;;;;;22.20;98.00;;;;;;5096511;28;19908;-60
2021/11/15 09:34:45;;;;;;;;;;;22.20;98.00;;;;;;5096463;28;20383;-59
2021/11/15 09:37:12;;;;;;;;;;;22.20;98.10;;;;;;5096509;28;19936;-59
2021/11/15 09:39:38;;;;;;;;;;;22.20;98.00;;;;;;5095817;28;20380;-60
2021/11/15 09:42:04;;;;;;;;;;;22.20;98.10;;;;;;5096257;28;19909;-59
2021/11/15 09:44:30;;;;;;;;;;;22.20;98.10;;;;;;5096488;28;19975;-59
2021/11/15 09:46:55;;;;;;;;;;;22.20;98.10;;;;;;5096321;28;19947;-59
2021/11/15 09:49:20;;;;;;;;;;;22.20;98.10;;;;;;5096345;28;19959;-59
2021/11/15 09:51:48;;;;;;;;;;;22.20;98.10;;;;;;5096123;28;20368;-59
2021/11/15 09:54:14;;;;;;;;;;;22.30;98.10;;;;;;5095604;28;20279;-60
2021/11/15 09:56:39;;;;;;;;;;;22.20;98.10;;;;;;5095964;28;19912;-59
2021/11/15 09:59:07;;;;;;;;;;;22.20;98.10;;;;;;5095765;28;20374;-59
2021/11/15 10:01:33;;;;;;;;;;;22.30;98.10;;;;;;5095907;28;19912;-59
2021/11/15 10:03:59;;;;;;;;;;;22.20;98.10;;;;;;5095832;28;19908;-59
2021/11/15 10:06:24;;;;;;;;;;;22.30;98.10;;;;;;5095395;28;20353;-59
2021/11/15 10:08:52;;;;;;;;;;;22.30;98.10;;;;;;5096028;28;20364;-59
2021/11/15 10:11:18;;;;;;;;;;;22.30;98.20;;;;;;5095743;28;19911;-59
